sensor_id;sensor_type;location;lat;lon;timestamp;P1;durP1;ratioP1;P2;durP2;ratioP2
12052;SDS011;6087;48.982;12.064;2023-02-01T00:01:54;5.03;;;3.10;;
12052;SDS011;6087;48.982;12.064;2023-02-01T00:04:22;6.17;;;3.33;;
12052;SDS011;6087;48.982;12.064;2023-02-01T00:06:49;6.03;;;3.53;;
12052;SDS011;6087;48.982;12.064;2023-02-01T00:09:16;4.13;;;3.27;;
12052;SDS011;6087;48.982;12.064;2023-02-01T00:11:43;5.13;;;3.80;;
12052;SDS011;6087;48.982;12.064;2023-02-01T00:14:17;5.07;;;3.53;;
12052;SDS011;6087;48.982;12.064;2023-02-01T00:19:59;4.23;;;3.83;;
12052;SDS011;6087;48.982;12.064;2023-02-01T00:22:28;6.40;;;4.47;;
12052;SDS011;6087;48.982;12.064;2023-02-01T00:24:55;3.13;;;2.80;;
12052;SDS011;6087;48.982;12.064;2023-02-01T00:27:33;4.03;;;3.47;;
12052;SDS011;6087;48.982;12.064;2023-02-01T00:30:00;4.00;;;3.60;;
12052;SDS011;6087;48.982;12.064;2023-02-01T00:32:29;4.23;;;3.47;;
12052;SDS011;6087;48.982;12.064;2023-02-01T00:34:56;4.20;;;2.87;;
12052;SDS011;6087;48.982;12.064;2023-02-01T00:37:26;4.97;;;3.33;;
12052;SDS011;6087;48.982;12.064;2023-02-01T00:39:53;5.87;;;3.10;;
12052;SDS011;6087;48.982;12.064;2023-02-01T00:42:23;3.47;;;2.70;;
12052;SDS011;6087;48.982;12.064;2023-02-01T00:44:50;4.83;;;3.63;;
12052;SDS011;6087;48.982;12.064;2023-02-01T00:47:25;5.80;;;3.57;;
12052;SDS011;6087;48.982;12.064;2023-02-01T00:49:57;4.40;;;3.30;;
12052;SDS011;6087;48.982;12.064;2023-02-01T00:52:24;5.20;;;3.47;;
12052;SDS011;6087;48.982;12.064;2023-02-01T00:54:51;6.23;;;4.00;;
12052;SDS011;6087;48.982;12.064;2023-02-01T00:57:17;4.57;;;3.77;;
12052;SDS011;6087;48.982;12.064;2023-02-01T00:59:44;4.53;;;4.07;;
12052;SDS011;6087;48.982;12.064;2023-02-01T01:02:11;5.00;;;3.40;;
12052;SDS011;6087;48.982;12.064;2023-02-01T01:04:39;8.17;;;3.97;;
12052;SDS011;6087;48.982;12.064;2023-02-01T01:07:14;4.40;;;3.47;;
12052;SDS011;6087;48.982;12.064;2023-02-01T01:09:57;7.60;;;3.27;;
12052;SDS011;6087;48.982;12.064;2023-02-01T01:12:25;5.13;;;3.57;;
12052;SDS011;6087;48.982;12.064;2023-02-01T01:14:52;4.73;;;3.67;;
12052;SDS011;6087;48.982;12.064;2023-02-01T01:17:19;6.30;;;3.40;;
12052;SDS011;6087;48.982;12.064;2023-02-01T01:19:46;5.67;;;3.97;;
12052;SDS011;6087;48.982;12.064;2023-02-01T01:22:17;4.53;;;4.00;;
12052;SDS011;6087;48.982;12.064;2023-02-01T01:24:50;5.63;;;3.40;;
12052;SDS011;6087;48.982;12.064;2023-02-01T01:27:17;6.03;;;3.93;;
12052;SDS011;6087;48.982;12.064;2023-02-01T01:29:50;6.73;;;3.77;;
12052;SDS011;6087;48.982;12.064;2023-02-01T01:32:17;4.70;;;3.47;;
12052;SDS011;6087;48.982;12.064;2023-02-01T01:34:44;4.67;;;3.80;;
12052;SDS011;6087;48.982;12.064;2023-02-01T01:37:11;4.60;;;2.87;;
12052;SDS011;6087;48.982;12.064;2023-02-01T01:39:39;3.63;;;3.33;;
12052;SDS011;6087;48.982;12.064;2023-02-01T01:42:08;3.83;;;3.27;;
12052;SDS011;6087;48.982;12.064;2023-02-01T01:44:55;4.00;;;3.07;;
12052;SDS011;6087;48.982;12.064;2023-02-01T01:47:30;3.60;;;3.03;;
12052;SDS011;6087;48.982;12.064;2023-02-01T01:50:11;7.00;;;3.60;;
12052;SDS011;6087;48.982;12.064;2023-02-01T01:52:45;5.07;;;3.87;;
12052;SDS011;6087;48.982;12.064;2023-02-01T01:55:18;5.80;;;4.63;;
12052;SDS011;6087;48.982;12.064;2023-02-01T01:57:50;3.50;;;3.10;;
12052;SDS011;6087;48.982;12.064;2023-02-01T02:00:31;5.00;;;3.43;;
12052;SDS011;6087;48.982;12.064;2023-02-01T02:03:06;3.93;;;3.23;;
12052;SDS011;6087;48.982;12.064;2023-02-01T02:05:39;3.90;;;3.23;;
12052;SDS011;6087;48.982;12.064;2023-02-01T02:08:07;4.17;;;2.80;;
12052;SDS011;6087;48.982;12.064;2023-02-01T02:10:39;3.77;;;2.77;;
12052;SDS011;6087;48.982;12.064;2023-02-01T02:13:24;5.37;;;3.50;;
12052;SDS011;6087;48.982;12.064;2023-02-01T02:15:55;3.70;;;2.87;;
12052;SDS011;6087;48.982;12.064;2023-02-01T02:18:48;4.27;;;3.07;;
12052;SDS011;6087;48.982;12.064;2023-02-01T02:21:26;3.90;;;3.50;;
12052;SDS011;6087;48.982;12.064;2023-02-01T02:24:32;4.10;;;2.60;;
12052;SDS011;6087;48.982;12.064;2023-02-01T02:27:25;4.57;;;3.63;;
12052;SDS011;6087;48.982;12.064;2023-02-01T02:30:14;5.07;;;3.63;;
12052;SDS011;6087;48.982;12.064;2023-02-01T02:36:14;3.53;;;2.23;;
12052;SDS011;6087;48.982;12.064;2023-02-01T02:38:48;4.17;;;2.23;;
12052;SDS011;6087;48.982;12.064;2023-02-01T02:41:20;2.93;;;2.67;;
12052;SDS011;6087;48.982;12.064;2023-02-01T02:44:12;3.17;;;2.60;;
12052;SDS011;6087;48.982;12.064;2023-02-01T02:47:13;3.43;;;2.87;;
12052;SDS011;6087;48.982;12.064;2023-02-01T02:49:51;4.90;;;2.87;;
12052;SDS011;6087;48.982;12.064;2023-02-01T02:52:46;3.13;;;2.50;;
12052;SDS011;6087;48.982;12.064;2023-02-01T02:55:34;4.33;;;2.87;;
12052;SDS011;6087;48.982;12.064;2023-02-01T02:58:05;3.83;;;2.97;;
12052;SDS011;6087;48.982;12.064;2023-02-01T03:00:51;3.17;;;2.43;;
12052;SDS011;6087;48.982;12.064;2023-02-01T03:03:37;2.73;;;2.50;;
12052;SDS011;6087;48.982;12.064;2023-02-01T03:06:24;3.20;;;2.33;;
12052;SDS011;6087;48.982;12.064;2023-02-01T03:08:52;3.33;;;2.87;;
12052;SDS011;6087;48.982;12.064;2023-02-01T03:11:23;3.83;;;3.17;;
12052;SDS011;6087;48.982;12.064;2023-02-01T03:14:14;3.77;;;2.80;;
12052;SDS011;6087;48.982;12.064;2023-02-01T03:16:46;4.10;;;2.50;;
12052;SDS011;6087;48.982;12.064;2023-02-01T03:19:19;3.80;;;2.80;;
12052;SDS011;6087;48.982;12.064;2023-02-01T03:21:57;2.77;;;2.53;;
12052;SDS011;6087;48.982;12.064;2023-02-01T03:24:28;2.43;;;2.20;;
12052;SDS011;6087;48.982;12.064;2023-02-01T03:27:05;3.10;;;2.57;;
12052;SDS011;6087;48.982;12.064;2023-02-01T03:29:40;2.87;;;2.57;;
12052;SDS011;6087;48.982;12.064;2023-02-01T03:32:31;3.70;;;2.40;;
12052;SDS011;6087;48.982;12.064;2023-02-01T03:35:20;4.07;;;2.27;;
12052;SDS011;6087;48.982;12.064;2023-02-01T03:37:55;3.70;;;2.50;;
12052;SDS011;6087;48.982;12.064;2023-02-01T03:40:28;1.87;;;1.73;;
12052;SDS011;6087;48.982;12.064;2023-02-01T03:43:00;3.13;;;2.30;;
12052;SDS011;6087;48.982;12.064;2023-02-01T03:45:34;3.77;;;2.17;;
12052;SDS011;6087;48.982;12.064;2023-02-01T03:48:05;2.60;;;2.27;;
12052;SDS011;6087;48.982;12.064;2023-02-01T03:50:34;3.63;;;2.93;;
12052;SDS011;6087;48.982;12.064;2023-02-01T03:53:06;2.70;;;2.20;;
12052;SDS011;6087;48.982;12.064;2023-02-01T03:55:36;3.93;;;2.60;;
12052;SDS011;6087;48.982;12.064;2023-02-01T03:58:06;2.57;;;1.80;;
12052;SDS011;6087;48.982;12.064;2023-02-01T04:00:35;3.53;;;2.10;;
12052;SDS011;6087;48.982;12.064;2023-02-01T04:03:03;2.93;;;2.40;;
12052;SDS011;6087;48.982;12.064;2023-02-01T04:05:31;2.47;;;2.27;;
12052;SDS011;6087;48.982;12.064;2023-02-01T04:07:58;2.03;;;1.93;;
12052;SDS011;6087;48.982;12.064;2023-02-01T04:10:27;2.77;;;2.23;;
12052;SDS011;6087;48.982;12.064;2023-02-01T04:12:54;2.00;;;1.90;;
12052;SDS011;6087;48.982;12.064;2023-02-01T04:15:21;2.00;;;1.80;;
12052;SDS011;6087;48.982;12.064;2023-02-01T04:17:48;2.20;;;1.90;;
12052;SDS011;6087;48.982;12.064;2023-02-01T04:20:15;2.20;;;2.00;;
12052;SDS011;6087;48.982;12.064;2023-02-01T04:22:43;4.87;;;2.17;;
12052;SDS011;6087;48.982;12.064;2023-02-01T04:25:10;4.70;;;1.87;;
12052;SDS011;6087;48.982;12.064;2023-02-01T04:27:39;2.53;;;2.20;;
12052;SDS011;6087;48.982;12.064;2023-02-01T04:30:15;1.63;;;1.53;;
12052;SDS011;6087;48.982;12.064;2023-02-01T04:32:43;2.47;;;1.80;;
12052;SDS011;6087;48.982;12.064;2023-02-01T04:35:10;3.53;;;1.90;;
12052;SDS011;6087;48.982;12.064;2023-02-01T04:37:37;2.80;;;2.00;;
12052;SDS011;6087;48.982;12.064;2023-02-01T04:40:04;2.37;;;1.90;;
12052;SDS011;6087;48.982;12.064;2023-02-01T04:42:32;3.60;;;2.07;;
12052;SDS011;6087;48.982;12.064;2023-02-01T04:45:04;2.57;;;2.03;;
12052;SDS011;6087;48.982;12.064;2023-02-01T04:47:32;2.40;;;2.07;;
12052;SDS011;6087;48.982;12.064;2023-02-01T04:49:59;2.67;;;2.13;;
12052;SDS011;6087;48.982;12.064;2023-02-01T04:52:30;2.07;;;1.80;;
12052;SDS011;6087;48.982;12.064;2023-02-01T04:55:00;4.00;;;2.07;;
12052;SDS011;6087;48.982;12.064;2023-02-01T04:57:28;2.33;;;1.80;;
12052;SDS011;6087;48.982;12.064;2023-02-01T04:59:55;2.77;;;1.93;;
12052;SDS011;6087;48.982;12.064;2023-02-01T05:02:23;2.10;;;1.80;;
12052;SDS011;6087;48.982;12.064;2023-02-01T05:04:52;1.57;;;1.43;;
12052;SDS011;6087;48.982;12.064;2023-02-01T05:07:22;2.00;;;1.80;;
12052;SDS011;6087;48.982;12.064;2023-02-01T05:09:49;1.80;;;1.67;;
12052;SDS011;6087;48.982;12.064;2023-02-01T05:12:18;1.73;;;1.63;;
12052;SDS011;6087;48.982;12.064;2023-02-01T05:15:03;1.63;;;1.40;;
12052;SDS011;6087;48.982;12.064;2023-02-01T05:17:34;1.83;;;1.53;;
12052;SDS011;6087;48.982;12.064;2023-02-01T05:20:02;1.53;;;1.43;;
12052;SDS011;6087;48.982;12.064;2023-02-01T05:22:29;2.80;;;1.60;;
12052;SDS011;6087;48.982;12.064;2023-02-01T05:24:56;2.23;;;1.80;;
12052;SDS011;6087;48.982;12.064;2023-02-01T05:27:23;2.10;;;1.80;;
12052;SDS011;6087;48.982;12.064;2023-02-01T05:29:50;1.07;;;1.00;;
12052;SDS011;6087;48.982;12.064;2023-02-01T05:32:17;2.80;;;1.67;;
12052;SDS011;6087;48.982;12.064;2023-02-01T05:34:46;2.53;;;1.60;;
12052;SDS011;6087;48.982;12.064;2023-02-01T05:37:17;1.77;;;1.67;;
12052;SDS011;6087;48.982;12.064;2023-02-01T05:39:45;1.80;;;1.47;;
12052;SDS011;6087;48.982;12.064;2023-02-01T05:42:12;1.80;;;1.70;;
12052;SDS011;6087;48.982;12.064;2023-02-01T05:44:39;3.30;;;1.77;;
12052;SDS011;6087;48.982;12.064;2023-02-01T05:47:06;2.17;;;1.90;;
12052;SDS011;6087;48.982;12.064;2023-02-01T05:49:33;2.10;;;1.90;;
12052;SDS011;6087;48.982;12.064;2023-02-01T05:52:07;2.30;;;2.10;;
12052;SDS011;6087;48.982;12.064;2023-02-01T05:54:35;2.60;;;1.80;;
12052;SDS011;6087;48.982;12.064;2023-02-01T05:57:04;2.13;;;1.80;;
12052;SDS011;6087;48.982;12.064;2023-02-01T05:59:31;2.77;;;2.30;;
12052;SDS011;6087;48.982;12.064;2023-02-01T06:01:59;3.27;;;1.30;;
12052;SDS011;6087;48.982;12.064;2023-02-01T06:04:26;5.63;;;1.80;;
12052;SDS011;6087;48.982;12.064;2023-02-01T06:06:53;2.33;;;2.10;;
12052;SDS011;6087;48.982;12.064;2023-02-01T06:09:21;1.83;;;1.57;;
12052;SDS011;6087;48.982;12.064;2023-02-01T06:11:48;2.87;;;1.80;;
12052;SDS011;6087;48.982;12.064;2023-02-01T06:14:27;4.37;;;2.10;;
12052;SDS011;6087;48.982;12.064;2023-02-01T06:16:55;3.60;;;2.40;;
12052;SDS011;6087;48.982;12.064;2023-02-01T06:19:24;2.27;;;1.80;;
12052;SDS011;6087;48.982;12.064;2023-02-01T06:22:02;3.10;;;2.20;;
12052;SDS011;6087;48.982;12.064;2023-02-01T06:24:33;2.20;;;1.90;;
12052;SDS011;6087;48.982;12.064;2023-02-01T06:26:59;1.93;;;1.33;;
12052;SDS011;6087;48.982;12.064;2023-02-01T06:29:26;3.40;;;2.20;;
12052;SDS011;6087;48.982;12.064;2023-02-01T06:31:56;3.17;;;1.97;;
12052;SDS011;6087;48.982;12.064;2023-02-01T06:34:23;2.23;;;2.00;;
12052;SDS011;6087;48.982;12.064;2023-02-01T06:36:50;4.07;;;2.13;;
12052;SDS011;6087;48.982;12.064;2023-02-01T06:39:18;2.57;;;2.23;;
12052;SDS011;6087;48.982;12.064;2023-02-01T06:41:47;2.10;;;1.90;;
12052;SDS011;6087;48.982;12.064;2023-02-01T06:44:14;2.90;;;2.00;;
12052;SDS011;6087;48.982;12.064;2023-02-01T06:46:41;3.97;;;2.20;;
12052;SDS011;6087;48.982;12.064;2023-02-01T06:49:08;3.13;;;2.33;;
12052;SDS011;6087;48.982;12.064;2023-02-01T06:51:35;1.87;;;1.67;;
12052;SDS011;6087;48.982;12.064;2023-02-01T06:54:02;2.97;;;2.30;;
12052;SDS011;6087;48.982;12.064;2023-02-01T06:56:29;3.17;;;2.50;;
12052;SDS011;6087;48.982;12.064;2023-02-01T06:58:58;2.07;;;1.87;;
12052;SDS011;6087;48.982;12.064;2023-02-01T07:01:26;2.67;;;2.27;;
12052;SDS011;6087;48.982;12.064;2023-02-01T07:03:58;2.47;;;1.70;;
12052;SDS011;6087;48.982;12.064;2023-02-01T07:06:25;2.73;;;2.00;;
12052;SDS011;6087;48.982;12.064;2023-02-01T07:08:52;3.83;;;2.07;;
12052;SDS011;6087;48.982;12.064;2023-02-01T07:11:22;2.57;;;2.37;;
12052;SDS011;6087;48.982;12.064;2023-02-01T07:13:52;1.90;;;1.80;;
12052;SDS011;6087;48.982;12.064;2023-02-01T07:16:20;2.30;;;2.10;;
12052;SDS011;6087;48.982;12.064;2023-02-01T07:18:51;2.40;;;2.10;;
12052;SDS011;6087;48.982;12.064;2023-02-01T07:21:19;2.57;;;1.87;;
12052;SDS011;6087;48.982;12.064;2023-02-01T07:23:46;3.77;;;2.40;;
12052;SDS011;6087;48.982;12.064;2023-02-01T07:26:15;4.07;;;2.17;;
12052;SDS011;6087;48.982;12.064;2023-02-01T07:28:42;5.40;;;2.07;;
12052;SDS011;6087;48.982;12.064;2023-02-01T07:31:12;2.60;;;2.10;;
12052;SDS011;6087;48.982;12.064;2023-02-01T07:33:58;3.33;;;2.10;;
12052;SDS011;6087;48.982;12.064;2023-02-01T07:36:27;4.57;;;2.17;;
12052;SDS011;6087;48.982;12.064;2023-02-01T07:39:12;5.03;;;2.57;;
12052;SDS011;6087;48.982;12.064;2023-02-01T07:42:18;2.57;;;2.00;;
12052;SDS011;6087;48.982;12.064;2023-02-01T07:44:45;2.03;;;1.90;;
12052;SDS011;6087;48.982;12.064;2023-02-01T07:47:38;3.63;;;2.50;;
12052;SDS011;6087;48.982;12.064;2023-02-01T07:50:14;3.07;;;2.23;;
12052;SDS011;6087;48.982;12.064;2023-02-01T07:52:42;1.90;;;1.77;;
12052;SDS011;6087;48.982;12.064;2023-02-01T07:55:09;3.37;;;2.10;;
12052;SDS011;6087;48.982;12.064;2023-02-01T07:57:36;3.10;;;2.80;;
12052;SDS011;6087;48.982;12.064;2023-02-01T08:00:03;6.20;;;2.10;;
12052;SDS011;6087;48.982;12.064;2023-02-01T08:02:54;4.40;;;2.20;;
12052;SDS011;6087;48.982;12.064;2023-02-01T08:05:26;2.67;;;2.03;;
12052;SDS011;6087;48.982;12.064;2023-02-01T08:08:00;1.83;;;1.70;;
12052;SDS011;6087;48.982;12.064;2023-02-01T08:10:27;2.60;;;1.90;;
12052;SDS011;6087;48.982;12.064;2023-02-01T08:12:57;3.20;;;1.97;;
12052;SDS011;6087;48.982;12.064;2023-02-01T08:15:28;3.53;;;1.87;;
12052;SDS011;6087;48.982;12.064;2023-02-01T08:17:55;2.63;;;1.43;;
12052;SDS011;6087;48.982;12.064;2023-02-01T08:20:23;3.90;;;2.00;;
12052;SDS011;6087;48.982;12.064;2023-02-01T08:23:06;2.77;;;2.00;;
12052;SDS011;6087;48.982;12.064;2023-02-01T08:25:34;3.40;;;1.77;;
12052;SDS011;6087;48.982;12.064;2023-02-01T08:28:01;2.70;;;2.23;;
12052;SDS011;6087;48.982;12.064;2023-02-01T08:30:28;1.67;;;1.30;;
12052;SDS011;6087;48.982;12.064;2023-02-01T08:32:57;1.67;;;1.50;;
12052;SDS011;6087;48.982;12.064;2023-02-01T08:35:24;3.63;;;1.77;;
12052;SDS011;6087;48.982;12.064;2023-02-01T08:37:51;2.07;;;1.87;;
12052;SDS011;6087;48.982;12.064;2023-02-01T08:40:22;4.37;;;2.13;;
12052;SDS011;6087;48.982;12.064;2023-02-01T08:42:49;1.77;;;1.67;;
12052;SDS011;6087;48.982;12.064;2023-02-01T08:45:19;2.13;;;1.93;;
12052;SDS011;6087;48.982;12.064;2023-02-01T08:47:48;3.80;;;2.00;;
12052;SDS011;6087;48.982;12.064;2023-02-01T08:50:19;3.37;;;1.57;;
12052;SDS011;6087;48.982;12.064;2023-02-01T08:52:47;2.10;;;1.90;;
12052;SDS011;6087;48.982;12.064;2023-02-01T08:55:15;1.60;;;1.43;;
12052;SDS011;6087;48.982;12.064;2023-02-01T08:57:46;2.40;;;1.10;;
12052;SDS011;6087;48.982;12.064;2023-02-01T09:00:14;1.73;;;1.30;;
12052;SDS011;6087;48.982;12.064;2023-02-01T09:02:43;2.00;;;1.30;;
12052;SDS011;6087;48.982;12.064;2023-02-01T09:05:11;1.20;;;1.10;;
12052;SDS011;6087;48.982;12.064;2023-02-01T09:07:39;4.47;;;1.40;;
12052;SDS011;6087;48.982;12.064;2023-02-01T09:10:06;3.10;;;1.43;;
12052;SDS011;6087;48.982;12.064;2023-02-01T09:12:34;2.93;;;1.57;;
12052;SDS011;6087;48.982;12.064;2023-02-01T09:15:03;2.50;;;1.63;;
12052;SDS011;6087;48.982;12.064;2023-02-01T09:17:32;1.67;;;1.57;;
12052;SDS011;6087;48.982;12.064;2023-02-01T09:20:05;1.40;;;1.33;;
12052;SDS011;6087;48.982;12.064;2023-02-01T09:22:33;2.93;;;1.70;;
12052;SDS011;6087;48.982;12.064;2023-02-01T09:25:00;1.43;;;1.27;;
12052;SDS011;6087;48.982;12.064;2023-02-01T09:27:28;2.20;;;1.33;;
12052;SDS011;6087;48.982;12.064;2023-02-01T09:29:55;2.60;;;1.87;;
12052;SDS011;6087;48.982;12.064;2023-02-01T09:32:24;3.13;;;1.40;;
12052;SDS011;6087;48.982;12.064;2023-02-01T09:34:51;2.13;;;1.33;;
12052;SDS011;6087;48.982;12.064;2023-02-01T09:37:19;2.80;;;1.30;;
12052;SDS011;6087;48.982;12.064;2023-02-01T09:39:51;1.10;;;1.00;;
12052;SDS011;6087;48.982;12.064;2023-02-01T09:42:22;1.97;;;1.23;;
12052;SDS011;6087;48.982;12.064;2023-02-01T09:45:06;2.60;;;1.40;;
12052;SDS011;6087;48.982;12.064;2023-02-01T09:47:43;2.17;;;1.60;;
12052;SDS011;6087;48.982;12.064;2023-02-01T09:50:15;1.80;;;1.20;;
12052;SDS011;6087;48.982;12.064;2023-02-01T09:52:48;2.20;;;1.70;;
12052;SDS011;6087;48.982;12.064;2023-02-01T09:55:23;1.93;;;1.60;;
12052;SDS011;6087;48.982;12.064;2023-02-01T09:57:58;1.53;;;1.13;;
12052;SDS011;6087;48.982;12.064;2023-02-01T10:00:28;1.80;;;1.50;;
12052;SDS011;6087;48.982;12.064;2023-02-01T10:02:58;2.27;;;1.90;;
12052;SDS011;6087;48.982;12.064;2023-02-01T10:05:30;2.97;;;1.60;;
12052;SDS011;6087;48.982;12.064;2023-02-01T10:08:23;3.23;;;2.27;;
12052;SDS011;6087;48.982;12.064;2023-02-01T10:11:13;3.70;;;1.80;;
12052;SDS011;6087;48.982;12.064;2023-02-01T10:13:54;2.77;;;2.07;;
12052;SDS011;6087;48.982;12.064;2023-02-01T10:16:40;2.20;;;1.27;;
12052;SDS011;6087;48.982;12.064;2023-02-01T10:19:27;2.37;;;2.10;;
12052;SDS011;6087;48.982;12.064;2023-02-01T10:22:06;3.23;;;2.40;;
12052;SDS011;6087;48.982;12.064;2023-02-01T10:24:39;2.80;;;2.40;;
12052;SDS011;6087;48.982;12.064;2023-02-01T10:27:17;2.70;;;2.27;;
12052;SDS011;6087;48.982;12.064;2023-02-01T10:29:50;3.87;;;2.10;;
12052;SDS011;6087;48.982;12.064;2023-02-01T10:32:21;5.57;;;2.70;;
12052;SDS011;6087;48.982;12.064;2023-02-01T10:34:52;5.47;;;2.40;;
12052;SDS011;6087;48.982;12.064;2023-02-01T10:37:26;5.63;;;2.20;;
12052;SDS011;6087;48.982;12.064;2023-02-01T10:39:56;3.57;;;2.63;;
12052;SDS011;6087;48.982;12.064;2023-02-01T10:42:26;4.03;;;2.40;;
12052;SDS011;6087;48.982;12.064;2023-02-01T10:44:56;4.63;;;2.30;;
12052;SDS011;6087;48.982;12.064;2023-02-01T10:47:27;5.17;;;1.93;;
12052;SDS011;6087;48.982;12.064;2023-02-01T10:50:02;3.70;;;1.97;;
12052;SDS011;6087;48.982;12.064;2023-02-01T10:52:40;1.67;;;1.50;;
12052;SDS011;6087;48.982;12.064;2023-02-01T10:55:32;5.60;;;2.83;;
12052;SDS011;6087;48.982;12.064;2023-02-01T10:58:05;9.77;;;4.03;;
12052;SDS011;6087;48.982;12.064;2023-02-01T11:00:50;2.23;;;1.80;;
12052;SDS011;6087;48.982;12.064;2023-02-01T11:03:31;4.47;;;2.53;;
12052;SDS011;6087;48.982;12.064;2023-02-01T11:06:08;2.10;;;1.83;;
12052;SDS011;6087;48.982;12.064;2023-02-01T11:08:47;4.97;;;2.20;;
12052;SDS011;6087;48.982;12.064;2023-02-01T11:11:31;1.53;;;1.30;;
12052;SDS011;6087;48.982;12.064;2023-02-01T11:14:01;4.60;;;1.83;;
12052;SDS011;6087;48.982;12.064;2023-02-01T11:16:40;3.50;;;2.73;;
12052;SDS011;6087;48.982;12.064;2023-02-01T11:19:17;3.07;;;1.57;;
12052;SDS011;6087;48.982;12.064;2023-02-01T11:21:53;4.60;;;1.90;;
12052;SDS011;6087;48.982;12.064;2023-02-01T11:24:26;9.03;;;2.60;;
12052;SDS011;6087;48.982;12.064;2023-02-01T11:27:12;4.37;;;1.80;;
12052;SDS011;6087;48.982;12.064;2023-02-01T11:29:49;3.67;;;1.70;;
12052;SDS011;6087;48.982;12.064;2023-02-01T11:32:18;5.73;;;2.30;;
12052;SDS011;6087;48.982;12.064;2023-02-01T11:34:59;3.67;;;1.90;;
12052;SDS011;6087;48.982;12.064;2023-02-01T11:40:34;7.10;;;2.03;;
12052;SDS011;6087;48.982;12.064;2023-02-01T11:43:18;4.00;;;1.97;;
12052;SDS011;6087;48.982;12.064;2023-02-01T11:45:59;5.43;;;2.10;;
12052;SDS011;6087;48.982;12.064;2023-02-01T11:52:07;5.47;;;1.80;;
12052;SDS011;6087;48.982;12.064;2023-02-01T11:54:58;5.20;;;1.90;;
12052;SDS011;6087;48.982;12.064;2023-02-01T11:57:57;4.50;;;2.20;;
12052;SDS011;6087;48.982;12.064;2023-02-01T12:00:47;4.07;;;1.80;;
12052;SDS011;6087;48.982;12.064;2023-02-01T12:03:36;3.70;;;1.77;;
12052;SDS011;6087;48.982;12.064;2023-02-01T12:06:24;1.53;;;1.43;;
12052;SDS011;6087;48.982;12.064;2023-02-01T12:09:10;7.23;;;2.00;;
12052;SDS011;6087;48.982;12.064;2023-02-01T12:11:46;3.10;;;1.80;;
12052;SDS011;6087;48.982;12.064;2023-02-01T12:14:29;4.90;;;2.00;;
12052;SDS011;6087;48.982;12.064;2023-02-01T12:20:32;5.23;;;1.80;;
12052;SDS011;6087;48.982;12.064;2023-02-01T12:23:29;2.23;;;1.90;;
12052;SDS011;6087;48.982;12.064;2023-02-01T12:29:43;5.27;;;1.80;;
12052;SDS011;6087;48.982;12.064;2023-02-01T12:32:31;3.97;;;1.70;;
12052;SDS011;6087;48.982;12.064;2023-02-01T12:35:24;4.43;;;2.47;;
12052;SDS011;6087;48.982;12.064;2023-02-01T12:38:26;4.20;;;2.13;;
12052;SDS011;6087;48.982;12.064;2023-02-01T12:41:34;3.40;;;1.83;;
12052;SDS011;6087;48.982;12.064;2023-02-01T12:44:27;5.53;;;2.10;;
12052;SDS011;6087;48.982;12.064;2023-02-01T12:47:05;3.57;;;1.83;;
12052;SDS011;6087;48.982;12.064;2023-02-01T12:49:40;3.73;;;1.80;;
12052;SDS011;6087;48.982;12.064;2023-02-01T12:52:30;6.07;;;1.83;;
12052;SDS011;6087;48.982;12.064;2023-02-01T12:55:10;3.33;;;1.73;;
12052;SDS011;6087;48.982;12.064;2023-02-01T12:57:48;6.70;;;2.53;;
12052;SDS011;6087;48.982;12.064;2023-02-01T13:00:20;5.47;;;2.53;;
12052;SDS011;6087;48.982;12.064;2023-02-01T13:02:56;6.17;;;1.83;;
12052;SDS011;6087;48.982;12.064;2023-02-01T13:05:28;4.80;;;2.47;;
12052;SDS011;6087;48.982;12.064;2023-02-01T13:08:01;7.47;;;2.47;;
12052;SDS011;6087;48.982;12.064;2023-02-01T13:10:53;6.30;;;2.60;;
12052;SDS011;6087;48.982;12.064;2023-02-01T13:13:28;9.27;;;2.60;;
12052;SDS011;6087;48.982;12.064;2023-02-01T13:16:06;2.97;;;2.10;;
12052;SDS011;6087;48.982;12.064;2023-02-01T13:18:43;5.77;;;2.37;;
12052;SDS011;6087;48.982;12.064;2023-02-01T13:21:15;7.23;;;2.53;;
12052;SDS011;6087;48.982;12.064;2023-02-01T13:23:46;7.67;;;2.37;;
12052;SDS011;6087;48.982;12.064;2023-02-01T13:26:17;5.40;;;2.77;;
12052;SDS011;6087;48.982;12.064;2023-02-01T13:28:53;5.30;;;2.97;;
12052;SDS011;6087;48.982;12.064;2023-02-01T13:31:32;3.47;;;2.80;;
12052;SDS011;6087;48.982;12.064;2023-02-01T13:34:31;7.87;;;3.20;;
12052;SDS011;6087;48.982;12.064;2023-02-01T13:43:09;5.60;;;2.30;;
12052;SDS011;6087;48.982;12.064;2023-02-01T13:45:43;8.67;;;1.90;;
12052;SDS011;6087;48.982;12.064;2023-02-01T13:48:22;4.90;;;2.13;;
12052;SDS011;6087;48.982;12.064;2023-02-01T13:50:55;5.03;;;2.20;;
12052;SDS011;6087;48.982;12.064;2023-02-01T13:53:28;4.30;;;1.60;;
12052;SDS011;6087;48.982;12.064;2023-02-01T13:55:58;3.63;;;3.10;;
12052;SDS011;6087;48.982;12.064;2023-02-01T13:58:36;4.33;;;2.07;;
12052;SDS011;6087;48.982;12.064;2023-02-01T14:07:21;4.87;;;1.47;;
12052;SDS011;6087;48.982;12.064;2023-02-01T14:09:53;4.07;;;1.53;;
12052;SDS011;6087;48.982;12.064;2023-02-01T14:15:17;4.43;;;2.03;;
12052;SDS011;6087;48.982;12.064;2023-02-01T14:17:49;9.60;;;2.40;;
12052;SDS011;6087;48.982;12.064;2023-02-01T14:23:21;3.67;;;1.53;;
12052;SDS011;6087;48.982;12.064;2023-02-01T14:26:01;5.93;;;1.83;;
12052;SDS011;6087;48.982;12.064;2023-02-01T14:28:35;3.73;;;1.97;;
12052;SDS011;6087;48.982;12.064;2023-02-01T14:31:25;4.47;;;1.93;;
12052;SDS011;6087;48.982;12.064;2023-02-01T14:34:00;5.33;;;2.20;;
12052;SDS011;6087;48.982;12.064;2023-02-01T14:36:47;3.37;;;1.37;;
12052;SDS011;6087;48.982;12.064;2023-02-01T14:39:22;5.97;;;1.60;;
12052;SDS011;6087;48.982;12.064;2023-02-01T14:42:01;2.57;;;1.80;;
12052;SDS011;6087;48.982;12.064;2023-02-01T14:44:35;6.27;;;1.97;;
12052;SDS011;6087;48.982;12.064;2023-02-01T14:47:09;3.70;;;1.90;;
12052;SDS011;6087;48.982;12.064;2023-02-01T14:49:55;6.70;;;2.40;;
12052;SDS011;6087;48.982;12.064;2023-02-01T14:52:33;7.27;;;2.10;;
12052;SDS011;6087;48.982;12.064;2023-02-01T14:55:14;7.03;;;2.00;;
12052;SDS011;6087;48.982;12.064;2023-02-01T14:57:52;4.13;;;2.00;;
12052;SDS011;6087;48.982;12.064;2023-02-01T15:00:22;4.93;;;1.40;;
12052;SDS011;6087;48.982;12.064;2023-02-01T15:02:53;4.90;;;1.47;;
12052;SDS011;6087;48.982;12.064;2023-02-01T15:05:37;6.73;;;2.17;;
12052;SDS011;6087;48.982;12.064;2023-02-01T15:08:05;9.23;;;2.03;;
12052;SDS011;6087;48.982;12.064;2023-02-01T15:10:47;4.90;;;1.27;;
12052;SDS011;6087;48.982;12.064;2023-02-01T15:13:25;7.47;;;2.43;;
12052;SDS011;6087;48.982;12.064;2023-02-01T15:16:03;6.73;;;1.70;;
12052;SDS011;6087;48.982;12.064;2023-02-01T15:18:36;3.13;;;1.83;;
12052;SDS011;6087;48.982;12.064;2023-02-01T15:21:05;6.43;;;2.40;;
12052;SDS011;6087;48.982;12.064;2023-02-01T15:23:35;6.63;;;2.07;;
12052;SDS011;6087;48.982;12.064;2023-02-01T15:26:06;5.87;;;1.87;;
12052;SDS011;6087;48.982;12.064;2023-02-01T15:28:39;7.37;;;2.53;;
12052;SDS011;6087;48.982;12.064;2023-02-01T15:31:13;4.60;;;1.90;;
12052;SDS011;6087;48.982;12.064;2023-02-01T15:33:55;8.80;;;2.20;;
12052;SDS011;6087;48.982;12.064;2023-02-01T15:36:25;3.83;;;1.97;;
12052;SDS011;6087;48.982;12.064;2023-02-01T15:41:56;5.80;;;1.73;;
12052;SDS011;6087;48.982;12.064;2023-02-01T15:44:33;6.10;;;1.80;;
12052;SDS011;6087;48.982;12.064;2023-02-01T15:47:06;6.77;;;2.27;;
12052;SDS011;6087;48.982;12.064;2023-02-01T15:49:46;4.03;;;1.60;;
12052;SDS011;6087;48.982;12.064;2023-02-01T15:52:23;2.03;;;1.83;;
12052;SDS011;6087;48.982;12.064;2023-02-01T15:54:56;5.27;;;1.70;;
12052;SDS011;6087;48.982;12.064;2023-02-01T15:57:27;5.43;;;1.37;;
12052;SDS011;6087;48.982;12.064;2023-02-01T16:00:01;4.07;;;1.83;;
12052;SDS011;6087;48.982;12.064;2023-02-01T16:02:42;5.30;;;1.40;;
12052;SDS011;6087;48.982;12.064;2023-02-01T16:05:30;3.33;;;1.63;;
12052;SDS011;6087;48.982;12.064;2023-02-01T16:08:01;4.53;;;1.90;;
12052;SDS011;6087;48.982;12.064;2023-02-01T16:10:37;5.83;;;1.80;;